Time;durP1;ratioP1;P1;durP2;ratioP2;P2;SDS_P1;SDS_P2;PMS_P1;PMS_P2;Temp;Humidity;BMP_temperature;BMP_pressure;BME280_temperature;BME280_humidity;BME280_pressure;Samples;Min_cycle;Max_cycle;Signal;HPM_P1;HPM_P2
2023/04/12 00:01:00;;;;;;;9.65;5.20;;;;;;;6.06;100.00;93441.53;4989886;28;20659;-57
2023/04/12 00:03:27;;;;;;;9.43;5.00;;;;;;;6.01;100.00;93439.97;4988909;28;20053;-58
2023/04/12 00:05:54;;;;;;;10.35;4.85;;;;;;;6.02;100.00;93424.41;4989467;28;20376;-54
2023/04/12 00:08:31;;;;;;;7.57;4.45;;;;;;;5.75;100.00;93422.19;4989053;28;20671;-57
2023/04/12 00:10:59;;;;;;;8.25;4.00;;;;;;;5.70;100.00;93415.22;4985724;28;20045;-57
2023/04/12 00:13:26;;;;;;;7.15;3.80;;;;;;;5.85;100.00;93418.63;4988739;28;20069;-58
2023/04/12 00:15:53;;;;;;;6.70;3.60;;;;;;;5.81;100.00;93409.72;4989452;28;20050;-59
2023/04/12 00:18:23;;;;;;;7.38;4.50;;;;;;;5.88;100.00;93406.97;4988817;28;20102;-55
2023/04/12 00:20:51;;;;;;;7.38;4.38;;;;;;;5.86;100.00;93411.25;4988141;28;20253;-57
2023/04/12 00:23:18;;;;;;;5.95;3.80;;;;;;;5.89;100.00;93405.78;4989320;28;20046;-58
2023/04/12 00:25:45;;;;;;;6.18;3.63;;;;;;;5.87;100.00;93386.34;4971356;28;20048;-56
2023/04/12 00:28:14;;;;;;;6.37;3.50;;;;;;;5.94;100.00;93388.25;4989364;28;20053;-56
2023/04/12 00:30:41;;;;;;;5.60;3.67;;;;;;;5.88;100.00;93390.63;4986712;28;20047;-55
2023/04/12 00:33:08;;;;;;;5.70;3.58;;;;;;;5.88;100.00;93385.19;4982535;28;20038;-55
2023/04/12 00:35:34;;;;;;;6.40;3.60;;;;;;;5.91;100.00;93373.47;4988618;28;20046;-57
2023/04/12 00:38:09;;;;;;;6.22;3.35;;;;;;;5.70;100.00;93374.38;4988984;28;20100;-60
2023/04/12 00:40:40;;;;;;;6.33;3.33;;;;;;;5.66;100.00;93373.63;4988295;28;20398;-62
2023/04/12 00:43:07;;;;;;;7.20;3.70;;;;;;;5.87;100.00;93361.81;4989122;28;20058;-59
2023/04/12 00:45:36;;;;;;;6.47;3.83;;;;;;;5.82;100.00;93354.09;4988452;28;20112;-57
2023/04/12 00:48:05;;;;;;;7.28;3.70;;;;;;;5.83;100.00;93352.91;4987356;28;20254;-57
2023/04/12 00:50:31;;;;;;;5.55;3.58;;;;;;;5.67;100.00;93360.78;4988480;28;20041;-60
2023/04/12 00:52:58;;;;;;;7.77;4.33;;;;;;;5.76;100.00;93352.97;4989051;28;20042;-60
2023/04/12 00:55:25;;;;;;;6.93;3.83;;;;;;;5.75;100.00;93346.72;4988328;28;20050;-57
2023/04/12 00:57:52;;;;;;;6.57;3.85;;;;;;;5.73;100.00;93340.13;4988891;28;20042;-54
2023/04/12 01:00:19;;;;;;;6.25;3.80;;;;;;;5.78;100.00;93342.47;4988592;28;20514;-59
2023/04/12 01:02:49;;;;;;;6.53;3.80;;;;;;;5.85;100.00;93347.06;4987693;28;20050;-60
2023/04/12 01:05:21;;;;;;;7.93;3.97;;;;;;;5.82;100.00;93343.22;4988812;28;20104;-57
2023/04/12 01:08:25;;;;;;;6.95;3.90;;;;;;;5.88;100.00;93343.56;4987497;28;20813;-57
2023/04/12 01:11:04;;;;;;;7.05;4.30;;;;;;;6.04;100.00;93340.34;4987381;28;20092;-55
2023/04/12 01:13:40;;;;;;;8.13;3.80;;;;;;;5.98;100.00;93340.03;4976046;28;20062;-58
2023/04/12 01:16:34;;;;;;;7.93;4.43;;;;;;;5.74;100.00;93338.97;4988395;28;20046;-54
2023/04/12 01:19:06;;;;;;;6.57;3.97;;;;;;;5.76;100.00;93331.97;4987906;28;20851;-56
2023/04/12 01:21:56;;;;;;;6.72;3.88;;;;;;;5.84;100.00;93321.03;4988311;28;20114;-58
2023/04/12 01:24:37;;;;;;;6.80;4.03;;;;;;;5.94;100.00;93320.94;4974931;28;20104;-56
2023/04/12 01:27:12;;;;;;;6.43;4.00;;;;;;;5.75;100.00;93310.56;4988577;28;20446;-54
2023/04/12 01:29:40;;;;;;;5.88;3.65;;;;;;;5.76;100.00;93298.53;4986704;28;20062;-57
2023/04/12 01:32:09;;;;;;;7.40;3.40;;;;;;;5.74;100.00;93306.31;4991450;28;20510;-57
2023/04/12 01:34:39;;;;;;;10.30;3.95;;;;;;;5.67;100.00;93292.72;4990627;28;20044;-54
2023/04/12 01:37:06;;;;;;;5.57;3.40;;;;;;;5.75;100.00;93295.00;4992311;28;20418;-56
2023/04/12 01:39:33;;;;;;;8.57;3.42;;;;;;;5.92;100.00;93295.28;4990281;28;20046;-54
2023/04/12 01:42:00;;;;;;;7.38;3.50;;;;;;;5.97;100.00;93289.44;4981513;28;20433;-58
2023/04/12 01:44:27;;;;;;;6.30;3.40;;;;;;;5.89;100.00;93290.63;4991557;28;20112;-56
2023/04/12 01:46:54;;;;;;;7.38;3.50;;;;;;;6.01;100.00;93287.44;4990786;28;20035;-54
2023/04/12 01:49:27;;;;;;;7.53;3.90;;;;;;;6.14;100.00;93282.31;4992226;28;20391;-58
2023/04/12 01:52:11;;;;;;;7.15;3.90;;;;;;;6.13;100.00;93267.13;4991316;28;20868;-60
2023/04/12 01:54:41;;;;;;;7.22;4.38;;;;;;;6.16;100.00;93264.38;4991700;28;20038;-54
2023/04/12 01:57:09;;;;;;;8.07;3.70;;;;;;;5.98;100.00;93253.63;4992098;28;20050;-57
2023/04/12 01:59:42;;;;;;;7.15;4.07;;;;;;;5.76;100.00;93239.38;4990057;28;20035;-55
2023/04/12 02:02:10;;;;;;;7.10;4.18;;;;;;;5.75;100.00;93240.56;4991955;28;20054;-59
2023/04/12 02:04:38;;;;;;;7.15;3.60;;;;;;;5.93;100.00;93245.84;4991164;28;20124;-53
2023/04/12 02:07:05;;;;;;;7.07;3.80;;;;;;;5.87;100.00;93222.94;4991910;28;20502;-57
2023/04/12 02:09:38;;;;;;;6.70;3.80;;;;;;;6.02;100.00;93215.47;4977875;28;20050;-58
2023/04/12 02:12:06;;;;;;;8.38;4.15;;;;;;;6.16;100.00;93214.56;4991749;28;20046;-55
2023/04/12 02:14:33;;;;;;;7.40;4.32;;;;;;;6.24;100.00;93207.88;4989736;28;20046;-60
2023/04/12 02:17:01;;;;;;;7.90;4.30;;;;;;;6.21;100.00;93208.66;4991653;28;20375;-58
2023/04/12 02:19:28;;;;;;;8.32;4.30;;;;;;;6.06;100.00;93199.88;4991105;28;20053;-58
2023/04/12 02:21:54;;;;;;;7.13;3.50;;;;;;;6.09;100.00;93199.03;4991483;28;20038;-56
2023/04/12 02:24:21;;;;;;;6.57;3.42;;;;;;;6.17;100.00;93195.06;4991259;28;20050;-57
2023/04/12 02:26:51;;;;;;;6.38;3.53;;;;;;;6.13;100.00;93194.34;4976917;28;20099;-53
2023/04/12 02:29:17;;;;;;;6.32;3.53;;;;;;;6.25;100.00;93190.31;4991425;28;20042;-55
2023/04/12 02:31:45;;;;;;;6.13;3.30;;;;;;;6.25;100.00;93184.88;4990697;28;20042;-53
2023/04/12 02:34:12;;;;;;;6.13;3.33;;;;;;;6.22;100.00;93184.91;4991010;28;20116;-55
2023/04/12 02:36:39;;;;;;;6.65;3.90;;;;;;;6.24;100.00;93177.91;4990686;28;20107;-58
2023/04/12 02:39:06;;;;;;;7.57;4.05;;;;;;;6.14;100.00;93178.78;4991004;28;20050;-57
2023/04/12 02:41:33;;;;;;;7.88;3.40;;;;;;;6.25;100.00;93171.25;4982464;28;20061;-60
2023/04/12 02:44:00;;;;;;;6.78;3.83;;;;;;;6.24;100.00;93166.19;4990492;28;20054;-58
2023/04/12 02:46:27;;;;;;;6.57;3.70;;;;;;;6.27;100.00;93168.91;4988935;28;20050;-54
2023/04/12 02:48:54;;;;;;;6.47;3.70;;;;;;;6.27;100.00;93155.28;4990953;28;20077;-57
2023/04/12 02:51:21;;;;;;;7.38;4.18;;;;;;;6.19;100.00;93156.53;4990830;28;20038;-54
2023/04/12 02:53:47;;;;;;;6.80;3.90;;;;;;;6.06;100.00;93147.34;4982189;28;20298;-54
2023/04/12 02:56:18;;;;;;;8.05;4.10;;;;;;;5.95;100.00;93150.16;4990519;28;20111;-60
2023/04/12 02:58:45;;;;;;;7.53;3.93;;;;;;;5.94;100.00;93154.81;4990372;28;20088;-56
2023/04/12 03:01:13;;;;;;;7.45;3.63;;;;;;;5.88;100.00;93158.41;4990605;28;20562;-58
2023/04/12 03:03:40;;;;;;;7.05;4.03;;;;;;;5.73;100.00;93155.00;4990458;28;20116;-58
2023/04/12 03:06:08;;;;;;;7.68;3.80;;;;;;;5.69;100.00;93159.72;4990627;28;20042;-53
2023/04/12 03:08:35;;;;;;;7.05;4.57;;;;;;;5.73;100.00;93155.00;4989959;28;20565;-56
2023/04/12 03:11:01;;;;;;;8.47;4.37;;;;;;;5.67;100.00;93151.94;4988826;28;20450;-54
2023/04/12 03:13:28;;;;;;;7.93;4.38;;;;;;;5.62;100.00;93148.91;4989829;28;20553;-56
2023/04/12 03:15:58;;;;;;;8.27;4.53;;;;;;;5.63;100.00;93136.84;4989187;28;20042;-59
2023/04/12 03:18:25;;;;;;;6.57;3.97;;;;;;;5.69;100.00;93137.94;4989772;28;20042;-57
2023/04/12 03:20:52;;;;;;;6.97;4.32;;;;;;;5.70;100.00;93136.78;4990403;28;20069;-58
2023/04/12 03:23:19;;;;;;;7.57;3.97;;;;;;;5.62;100.00;93130.63;4990019;28;20050;-57
2023/04/12 03:25:46;;;;;;;7.43;4.50;;;;;;;5.53;100.00;93133.03;4989745;28;20464;-56
2023/04/12 03:28:12;;;;;;;7.65;4.25;;;;;;;5.44;100.00;93125.34;4990450;28;20042;-54
2023/04/12 03:30:39;;;;;;;7.68;4.32;;;;;;;5.65;100.00;93129.81;4989576;28;20092;-57
2023/04/12 03:33:06;;;;;;;7.30;3.70;;;;;;;5.49;100.00;93119.44;4989897;28;20047;-58
2023/04/12 03:35:33;;;;;;;7.10;3.90;;;;;;;5.40;100.00;93119.91;4988319;28;20048;-56
2023/04/12 03:38:00;;;;;;;7.03;3.70;;;;;;;5.49;100.00;93119.44;4990082;28;20042;-57
2023/04/12 03:40:26;;;;;;;7.57;4.25;;;;;;;5.65;100.00;93109.97;4989316;28;20042;-56
2023/04/12 03:42:53;;;;;;;8.25;4.07;;;;;;;5.71;100.00;93111.84;4980591;28;20475;-57
2023/04/12 03:45:20;;;;;;;11.27;6.88;;;;;;;5.74;100.00;93102.13;4989945;28;20056;-58
2023/04/12 03:47:47;;;;;;;7.13;3.90;;;;;;;5.69;100.00;93092.44;4988741;28;20800;-59
2023/04/12 03:50:13;;;;;;;8.10;4.20;;;;;;;5.65;100.00;93086.25;4989677;28;20050;-57
2023/04/12 03:52:40;;;;;;;6.68;3.80;;;;;;;5.53;100.00;93081.31;4989060;28;20058;-58
2023/04/12 03:55:07;;;;;;;6.97;4.00;;;;;;;5.63;100.00;93077.72;4989522;28;20077;-55
2023/04/12 03:57:34;;;;;;;7.75;4.57;;;;;;;5.80;100.00;93071.31;4989011;28;20039;-55
2023/04/12 04:00:01;;;;;;;7.67;4.23;;;;;;;5.80;100.00;93081.44;4989628;28;20048;-56
2023/04/12 04:02:28;;;;;;;7.78;4.68;;;;;;;5.80;100.00;93076.00;4988999;28;20469;-60
2023/04/12 04:04:55;;;;;;;5.78;3.92;;;;;;;5.63;100.00;93066.06;4976497;28;20042;-58
2023/04/12 04:07:22;;;;;;;47.92;23.08;;;;;;;5.56;100.00;93066.91;4987904;28;20054;-58
2023/04/12 04:09:49;;;;;;;334.73;120.00;;;;;;;5.49;100.00;93065.03;4988945;28;20514;-51
2023/04/12 04:12:16;;;;;;;159.63;61.00;;;;;;;5.53;100.00;93062.28;4989484;28;20057;-55
2023/04/12 04:14:43;;;;;;;169.93;67.28;;;;;;;5.45;100.00;93052.63;4988652;28;20446;-55
2023/04/12 04:17:10;;;;;;;182.23;90.78;;;;;;;5.47;100.00;93051.03;4989182;28;20046;-58
2023/04/12 04:19:37;;;;;;;20.35;10.23;;;;;;;5.54;100.00;93048.25;4987639;28;20131;-58
2023/04/12 04:22:04;;;;;;;7.22;4.60;;;;;;;5.56;100.00;93042.44;4989138;28;20052;-57
2023/04/12 04:24:30;;;;;;;7.33;4.50;;;;;;;5.64;100.00;93041.16;4987382;28;20060;-53
2023/04/12 04:26:57;;;;;;;8.77;4.82;;;;;;;5.65;100.00;93050.88;4988773;28;20041;-55
2023/04/12 04:29:24;;;;;;;10.88;7.65;;;;;;;5.59;100.00;93039.69;4988526;28;20446;-57
2023/04/12 04:31:52;;;;;;;13.45;6.85;;;;;;;5.63;100.00;93045.06;4989026;28;20045;-59
2023/04/12 04:34:20;;;;;;;7.90;4.80;;;;;;;5.52;100.00;93039.72;4989054;28;20564;-59
2023/04/12 04:36:47;;;;;;;7.97;5.40;;;;;;;5.43;100.00;93042.16;4987876;28;20703;-59
2023/04/12 04:39:14;;;;;;;6.32;4.13;;;;;;;5.38;100.00;93035.22;4989218;28;20104;-55
2023/04/12 04:41:41;;;;;;;10.20;7.47;;;;;;;5.37;100.00;93030.16;4982951;28;20406;-54
2023/04/12 04:44:08;;;;;;;7.47;4.45;;;;;;;5.31;100.00;93026.34;4988938;28;20050;-58
2023/04/12 04:46:36;;;;;;;7.28;4.72;;;;;;;5.26;100.00;93026.78;4988323;28;20116;-53
2023/04/12 04:49:04;;;;;;;6.90;3.83;;;;;;;5.43;100.00;93031.25;4988578;28;20073;-55
2023/04/12 04:51:31;;;;;;;6.82;3.75;;;;;;;5.35;100.00;93021.63;4987931;28;20050;-60
2023/04/12 04:53:58;;;;;;;6.55;3.40;;;;;;;5.30;100.00;93017.41;4988683;28;20042;-56
2023/04/12 04:56:25;;;;;;;5.72;3.33;;;;;;;5.41;100.00;93017.28;4988414;28;20034;-59
2023/04/12 04:58:51;;;;;;;5.70;3.22;;;;;;;5.35;100.00;93018.91;4988596;28;20410;-58
2023/04/12 05:01:24;;;;;;;6.60;3.80;;;;;;;5.33;100.00;93027.50;4988117;28;20049;-60
2023/04/12 05:03:51;;;;;;;5.00;2.70;;;;;;;5.22;100.00;93013.22;4988448;28;20634;-57
2023/04/12 05:06:18;;;;;;;5.18;2.63;;;;;;;5.25;100.00;93015.16;4990365;28;20754;-53
2023/04/12 05:08:45;;;;;;;5.15;2.83;;;;;;;5.18;100.00;93005.09;4992229;28;20083;-54
2023/04/12 05:11:11;;;;;;;4.95;3.03;;;;;;;5.26;100.00;93010.47;4992349;28;20092;-55
2023/04/12 05:13:38;;;;;;;6.20;2.90;;;;;;;5.24;100.00;93007.38;4991873;28;20610;-57
2023/04/12 05:16:06;;;;;;;4.88;3.00;;;;;;;5.23;100.00;93019.41;4992221;28;20660;-56
2023/04/12 05:18:34;;;;;;;5.95;2.80;;;;;;;5.27;100.00;93017.44;4992167;28;20030;-52
2023/04/12 05:21:02;;;;;;;5.50;2.80;;;;;;;5.25;100.00;93011.63;4992347;28;20056;-58
2023/04/12 05:23:31;;;;;;;5.20;3.20;;;;;;;5.31;100.00;93015.44;4982329;28;20575;-54
2023/04/12 05:25:58;;;;;;;5.20;2.90;;;;;;;5.23;100.00;93008.53;4988284;28;20043;-54
2023/04/12 05:28:25;;;;;;;4.63;2.42;;;;;;;5.19;100.00;93014.81;4991999;28;20038;-55
2023/04/12 05:30:51;;;;;;;5.68;3.20;;;;;;;5.32;100.00;93019.72;4990996;28;20099;-59
2023/04/12 05:33:18;;;;;;;5.88;3.00;;;;;;;5.34;100.00;93014.66;4992278;28;20038;-52
2023/04/12 05:35:45;;;;;;;7.07;3.38;;;;;;;5.27;100.00;93007.34;4991831;28;20052;-59
2023/04/12 05:38:12;;;;;;;4.73;2.80;;;;;;;5.29;100.00;93015.09;4992032;28;20043;-57
2023/04/12 05:40:38;;;;;;;6.55;2.97;;;;;;;5.26;100.00;92999.59;4990749;28;20120;-56
2023/04/12 05:43:05;;;;;;;6.40;3.05;;;;;;;5.30;100.00;92994.88;4991320;28;20057;-53
2023/04/12 05:45:32;;;;;;;5.32;3.00;;;;;;;5.39;100.00;92995.16;4991359;28;20041;-56
2023/04/12 05:47:58;;;;;;;5.35;3.17;;;;;;;5.42;100.00;92991.63;4990834;28;20045;-60
2023/04/12 05:50:25;;;;;;;5.53;3.10;;;;;;;5.39;100.00;92989.72;4991455;28;20157;-57
2023/04/12 05:52:54;;;;;;;5.85;3.00;;;;;;;5.51;100.00;92981.03;4992104;28;20057;-58
2023/04/12 05:55:21;;;;;;;6.43;3.35;;;;;;;5.58;100.00;92974.75;4991826;28;20590;-59
2023/04/12 05:57:47;;;;;;;5.70;3.28;;;;;;;5.77;100.00;92974.13;4991112;28;21576;-59
2023/04/12 06:00:17;;;;;;;6.25;3.67;;;;;;;5.85;100.00;92971.31;4991972;28;20086;-57
2023/04/12 06:02:46;;;;;;;5.77;3.30;;;;;;;5.89;100.00;92975.53;4990963;28;20124;-57
2023/04/12 06:05:15;;;;;;;6.60;3.38;;;;;;;5.86;100.00;92978.31;4983796;28;20048;-55
2023/04/12 06:07:47;;;;;;;5.85;3.25;;;;;;;5.75;100.00;92972.97;4984797;28;20092;-58
2023/04/12 06:10:18;;;;;;;6.40;3.58;;;;;;;5.76;100.00;92980.00;4991385;28;20069;-59
2023/04/12 06:12:44;;;;;;;6.85;3.63;;;;;;;5.82;100.00;92970.19;4977742;28;20054;-57
2023/04/12 06:15:11;;;;;;;6.37;3.33;;;;;;;5.79;100.00;92968.25;4991224;28;20492;-61
2023/04/12 06:17:38;;;;;;;6.53;3.70;;;;;;;5.85;100.00;92960.41;4988713;28;20068;-58
2023/04/12 06:20:08;;;;;;;6.38;3.78;;;;;;;5.90;100.00;92963.47;4988729;28;20414;-57
2023/04/12 06:22:36;;;;;;;6.38;3.53;;;;;;;5.83;100.00;92951.88;4989589;28;20046;-55
2023/04/12 06:25:04;;;;;;;6.10;3.53;;;;;;;5.89;100.00;92945.56;4991380;28;20049;-56
2023/04/12 06:27:30;;;;;;;7.30;3.63;;;;;;;5.88;100.00;92948.72;4989293;28;20470;-60
2023/04/12 06:29:57;;;;;;;7.55;3.63;;;;;;;5.97;100.00;92938.88;4991209;28;20054;-58
2023/04/12 06:32:24;;;;;;;5.72;3.38;;;;;;;5.83;100.00;92935.56;4990583;28;20509;-53
2023/04/12 06:34:53;;;;;;;6.72;3.17;;;;;;;5.79;100.00;92925.50;4990917;28;20047;-58
2023/04/12 06:37:20;;;;;;;6.95;3.42;;;;;;;5.88;100.00;92924.97;4990992;28;20176;-58
2023/04/12 06:39:47;;;;;;;5.90;2.70;;;;;;;5.77;100.00;92905.28;4990508;28;20119;-57
2023/04/12 06:42:14;;;;;;;5.57;3.03;;;;;;;5.87;100.00;92896.19;4988068;28;20038;-58
2023/04/12 06:44:41;;;;;;;5.70;3.25;;;;;;;6.01;100.00;92887.09;4986305;28;20476;-58
2023/04/12 06:47:08;;;;;;;5.30;3.25;;;;;;;6.20;100.00;92874.75;4982353;28;20053;-56
2023/04/12 06:49:35;;;;;;;5.85;3.25;;;;;;;6.23;100.00;92863.03;4989582;28;20388;-54
2023/04/12 06:52:02;;;;;;;5.40;3.13;;;;;;;6.40;100.00;92855.75;4989592;28;20050;-54
2023/04/12 06:54:28;;;;;;;5.93;3.22;;;;;;;6.43;100.00;92849.47;4990132;28;20466;-60
2023/04/12 06:56:56;;;;;;;6.57;3.53;;;;;;;6.55;100.00;92842.66;4990628;28;20165;-60
2023/04/12 06:59:23;;;;;;;5.07;3.30;;;;;;;6.74;100.00;92841.94;4988806;28;20048;-59
2023/04/12 07:01:49;;;;;;;6.43;3.53;;;;;;;6.93;100.00;92834.19;4990654;28;20077;-57
2023/04/12 07:04:16;;;;;;;6.27;3.37;;;;;;;7.01;100.00;92843.75;4990411;28;20379;-55
2023/04/12 07:06:43;;;;;;;6.60;3.60;;;;;;;6.95;100.00;92840.75;4990384;28;20042;-57
2023/04/12 07:09:10;;;;;;;6.60;3.70;;;;;;;6.79;100.00;92846.88;4990454;28;20084;-57
2023/04/12 07:11:37;;;;;;;5.70;3.20;;;;;;;6.92;100.00;92843.53;4990141;28;20034;-58
2023/04/12 07:14:03;;;;;;;6.93;3.90;;;;;;;6.70;100.00;92851.34;4989253;28;20057;-60
2023/04/12 07:16:31;;;;;;;7.27;3.50;;;;;;;6.86;100.00;92840.53;4974905;28;20473;-56
2023/04/12 07:18:59;;;;;;;6.20;3.75;;;;;;;6.55;100.00;92843.41;4988244;28;20569;-54
2023/04/12 07:21:26;;;;;;;6.30;3.83;;;;;;;6.59;100.00;92846.06;4989768;28;20100;-55
2023/04/12 07:23:54;;;;;;;7.65;4.30;;;;;;;6.63;100.00;92837.84;4990202;28;20051;-57
2023/04/12 07:26:22;;;;;;;6.68;3.92;;;;;;;6.59;100.00;92840.63;4989789;28;20048;-56
2023/04/12 07:28:49;;;;;;;8.13;4.73;;;;;;;6.61;100.00;92835.53;4987919;28;20419;-59
2023/04/12 07:31:16;;;;;;;8.27;4.40;;;;;;;6.69;100.00;92839.66;4990082;28;20054;-60
2023/04/12 07:33:43;;;;;;;8.07;4.93;;;;;;;6.77;100.00;92837.59;4989248;28;20406;-59
2023/04/12 07:36:10;;;;;;;8.43;4.60;;;;;;;6.77;100.00;92837.59;4990064;28;20052;-57
2023/04/12 07:38:37;;;;;;;7.68;4.43;;;;;;;6.80;100.00;92845.72;4989323;28;20039;-53
2023/04/12 07:41:04;;;;;;;6.37;4.00;;;;;;;6.93;100.00;92832.22;4985291;28;20046;-57
2023/04/12 07:43:31;;;;;;;6.95;4.32;;;;;;;7.04;100.00;92833.97;4982271;28;20046;-58
2023/04/12 07:45:58;;;;;;;8.02;4.50;;;;;;;7.04;100.00;92823.06;4988649;28;20042;-59
2023/04/12 07:48:25;;;;;;;7.85;4.60;;;;;;;6.94;100.00;92814.69;4989311;28;20060;-59
2023/04/12 07:50:52;;;;;;;7.03;4.30;;;;;;;7.01;100.00;92816.50;4989758;28;20038;-58
2023/04/12 07:53:20;;;;;;;7.87;4.80;;;;;;;6.99;100.00;92811.44;4989652;28;20054;-55
2023/04/12 07:55:47;;;;;;;8.70;4.88;;;;;;;7.33;100.00;92809.63;4988401;28;20038;-57
2023/04/12 07:58:15;;;;;;;7.82;4.53;;;;;;;7.59;100.00;92799.72;4989567;28;20047;-57
2023/04/12 08:00:44;;;;;;;8.02;4.80;;;;;;;7.69;100.00;92812.34;4989237;28;20493;-58
2023/04/12 08:03:12;;;;;;;7.78;4.88;;;;;;;8.07;100.00;92809.16;4989525;28;20057;-57
2023/04/12 08:05:39;;;;;;;7.30;4.50;;;;;;;8.44;100.00;92800.88;4988794;28;20058;-58
2023/04/12 08:08:08;;;;;;;7.75;4.35;;;;;;;8.61;100.00;92802.38;4989456;28;20112;-58
2023/04/12 08:10:36;;;;;;;6.97;4.60;;;;;;;8.73;100.00;92796.22;4988663;28;20550;-61
2023/04/12 08:13:05;;;;;;;6.18;4.20;;;;;;;8.62;100.00;92779.31;4989414;28;20050;-58
2023/04/12 08:15:32;;;;;;;6.75;4.00;;;;;;;8.83;100.00;92772.50;4988733;28;20399;-59
2023/04/12 08:18:01;;;;;;;6.27;4.27;;;;;;;8.63;100.00;92772.63;4980773;28;20069;-58
2023/04/12 08:20:28;;;;;;;6.97;4.20;;;;;;;8.77;100.00;92761.34;4984393;28;20050;-57
2023/04/12 08:22:55;;;;;;;8.20;4.00;;;;;;;9.26;100.00;92757.63;4989161;28;20096;-59
2023/04/12 08:25:22;;;;;;;6.43;3.70;;;;;;;10.24;100.00;92767.19;4987370;28;20078;-58
2023/04/12 08:27:50;;;;;;;7.20;3.72;;;;;;;10.09;100.00;92769.59;4988921;28;20053;-59
2023/04/12 08:30:17;;;;;;;6.80;3.90;;;;;;;9.53;100.00;92773.63;4989205;28;20049;-58
2023/04/12 08:32:44;;;;;;;7.18;4.20;;;;;;;8.97;100.00;92780.34;4988740;28;20380;-58
2023/04/12 08:35:14;;;;;;;5.97;4.38;;;;;;;9.26;100.00;92774.06;4989034;28;20038;-58
2023/04/12 08:37:41;;;;;;;6.20;4.00;;;;;;;9.22;100.00;92759.69;4988332;28;20042;-58
2023/04/12 08:40:08;;;;;;;6.82;4.10;;;;;;;9.38;100.00;92756.13;4987244;28;20404;-60
2023/04/12 08:42:36;;;;;;;7.33;3.77;;;;;;;9.34;100.00;92758.19;4980399;28;20086;-58
2023/04/12 08:45:08;;;;;;;5.65;4.00;;;;;;;9.68;100.00;92749.34;4988701;28;20049;-59
2023/04/12 08:47:38;;;;;;;5.88;4.10;;;;;;;9.38;100.00;92758.84;4988649;28;20046;-58
2023/04/12 08:50:08;;;;;;;6.78;4.10;;;;;;;10.41;100.00;92753.34;4988968;28;20049;-58
2023/04/12 08:52:37;;;;;;;6.45;3.88;;;;;;;11.42;100.00;92747.84;4988723;28;20072;-59
2023/04/12 08:55:08;;;;;;;7.37;3.97;;;;;;;10.43;100.00;92754.44;4988724;28;20052;-58
2023/04/12 08:57:35;;;;;;;5.45;4.13;;;;;;;10.62;100.00;92735.38;4988383;28;20112;-59
2023/04/12 09:00:06;;;;;;;7.10;4.43;;;;;;;11.09;100.00;92734.53;4989067;28;20423;-58
2023/04/12 09:02:35;;;;;;;6.13;3.90;;;;;;;11.20;100.00;92729.38;4987011;28;20043;-61
2023/04/12 09:05:02;;;;;;;6.90;4.30;;;;;;;11.49;100.00;92733.81;4988698;28;20334;-60
2023/04/12 09:07:30;;;;;;;7.67;3.90;;;;;;;11.32;100.00;92736.03;4987137;28;20046;-58
2023/04/12 09:09:57;;;;;;;5.90;3.90;;;;;;;11.36;100.00;92742.16;4988526;28;20046;-59
2023/04/12 09:12:24;;;;;;;6.18;4.32;;;;;;;11.35;100.00;92746.88;4981245;28;20381;-60
2023/04/12 09:15:13;;;;;;;5.50;3.80;;;;;;;12.59;100.00;92730.66;4982956;28;20093;-58
2023/04/12 09:17:41;;;;;;;5.82;3.75;;;;;;;12.18;100.00;92730.75;4988369;28;20057;-61
2023/04/12 09:20:11;;;;;;;7.00;3.90;;;;;;;12.65;100.00;92728.06;4987378;28;20072;-60
2023/04/12 09:22:43;;;;;;;6.85;4.00;;;;;;;12.19;100.00;92732.31;4988014;28;20054;-61
2023/04/12 09:25:10;;;;;;;6.05;3.83;;;;;;;12.35;100.00;92730.47;4977294;28;20488;-58
2023/04/12 09:27:51;;;;;;;4.72;3.20;;;;;;;12.70;100.00;92725.47;4987765;28;20047;-59
2023/04/12 09:30:19;;;;;;;6.13;3.30;;;;;;;12.84;100.00;92724.09;4988552;28;20484;-58
2023/04/12 09:32:49;;;;;;;4.80;2.60;;;;;;;11.87;100.00;92722.56;4987988;28;20038;-56
2023/04/12 09:35:16;;;;;;;4.25;2.70;;;;;;;11.85;100.00;92727.75;4988639;28;20496;-58
2023/04/12 09:37:43;;;;;;;5.20;2.70;;;;;;;11.50;100.00;92732.63;4988010;28;20107;-58
2023/04/12 09:40:10;;;;;;;5.57;2.20;;;;;;;11.76;100.00;92711.97;4988033;28;20056;-58
2023/04/12 09:42:52;;;;;;;5.13;2.33;;;;;;;11.54;100.00;92723.00;4986887;28;20080;-58
2023/04/12 09:45:19;;;;;;;4.67;2.37;;;;;;;11.39;100.00;92720.06;4988425;28;20104;-59
2023/04/12 09:47:46;;;;;;;4.65;2.40;;;;;;;11.33;100.00;92727.34;4987682;28;20047;-58
2023/04/12 09:50:25;;;;;;;5.13;2.42;;;;;;;11.31;100.00;92745.50;4988552;28;20072;-58
2023/04/12 09:52:52;;;;;;;4.45;2.33;;;;;;;11.84;100.00;92731.69;4989923;28;20050;-58
2023/04/12 09:55:24;;;;;;;5.15;2.78;;;;;;;12.02;100.00;92733.00;4991961;28;20108;-58
2023/04/12 09:57:52;;;;;;;6.13;2.27;;;;;;;11.89;100.00;92733.88;4990784;28;20936;-61
2023/04/12 10:00:22;;;;;;;4.20;2.25;;;;;;;11.73;100.00;92731.34;4990768;28;20042;-59
2023/04/12 10:02:54;;;;;;;4.20;2.10;;;;;;;12.17;100.00;92736.69;4990614;28;20103;-59
2023/04/12 10:05:26;;;;;;;3.80;1.80;;;;;;;12.07;100.00;92740.66;4991353;28;20227;-59
2023/04/12 10:07:55;;;;;;;6.18;2.00;;;;;;;12.54;100.00;92728.53;4991772;28;20046;-60
2023/04/12 10:10:22;;;;;;;4.00;2.07;;;;;;;12.66;100.00;92735.13;4991128;28;20049;-58
2023/04/12 10:12:49;;;;;;;5.28;2.08;;;;;;;12.01;100.00;92729.47;4990293;28;20042;-58
2023/04/12 10:15:16;;;;;;;3.88;2.08;;;;;;;12.16;100.00;92737.94;4991876;28;20526;-58
2023/04/12 10:17:52;;;;;;;3.90;2.17;;;;;;;11.72;100.00;92738.06;4991281;28;20046;-58
2023/04/12 10:20:20;;;;;;;4.18;2.00;;;;;;;11.27;100.00;92742.88;4979372;28;20050;-58
2023/04/12 10:22:52;;;;;;;3.87;2.10;;;;;;;11.78;100.00;92737.00;4978220;28;20043;-57
2023/04/12 10:25:24;;;;;;;4.45;2.10;;;;;;;12.08;100.00;92737.44;4991563;28;20048;-58
2023/04/12 10:27:52;;;;;;;4.78;2.50;;;;;;;12.51;100.00;92741.19;4990651;28;20088;-59
2023/04/12 10:30:27;;;;;;;3.55;1.80;;;;;;;12.79;100.00;92738.47;4990197;28;20050;-59
2023/04/12 10:33:03;;;;;;;3.90;1.75;;;;;;;11.92;100.00;92732.97;4977337;28;20751;-59
2023/04/12 10:36:02;;;;;;;3.20;1.60;;;;;;;11.92;100.00;92732.22;4991199;28;20057;-60
2023/04/12 10:38:31;;;;;;;4.22;2.00;;;;;;;12.22;100.00;92738.09;4990877;28;20088;-56
2023/04/12 10:41:13;;;;;;;3.40;1.90;;;;;;;12.47;100.00;92721.31;4987162;28;20047;-60
2023/04/12 10:43:45;;;;;;;4.10;1.60;;;;;;;12.08;100.00;92733.94;4984270;28;20061;-60
2023/04/12 10:46:43;;;;;;;4.07;1.70;;;;;;;11.80;100.00;92723.56;4991185;28;20130;-58
2023/04/12 10:49:15;;;;;;;3.93;1.90;;;;;;;11.86;100.00;92729.25;4964568;28;20872;-56
2023/04/12 10:52:07;;;;;;;3.15;1.60;;;;;;;12.16;100.00;92730.44;4989615;28;20050;-60
2023/04/12 10:54:35;;;;;;;5.38;1.95;;;;;;;12.79;100.00;92727.47;4982571;28;20492;-56
2023/04/12 10:57:05;;;;;;;4.20;1.70;;;;;;;13.49;98.81;92715.78;4990877;28;20045;-59
2023/04/12 10:59:58;;;;;;;3.70;1.70;;;;;;;13.05;97.66;92711.38;4978125;28;20046;-58
2023/04/12 11:02:25;;;;;;;5.30;2.17;;;;;;;13.16;100.00;92706.19;4987657;28;20073;-60
2023/04/12 11:05:07;;;;;;;4.90;2.13;;;;;;;13.07;97.53;92686.91;4989746;28;20096;-60
2023/04/12 11:07:43;;;;;;;4.18;2.30;;;;;;;12.61;98.18;92684.19;4988965;28;20052;-58
2023/04/12 11:10:14;;;;;;;4.13;2.00;;;;;;;12.88;99.99;92688.16;4989023;28;20055;-59
2023/04/12 11:12:48;;;;;;;4.20;2.30;;;;;;;12.69;100.00;92690.16;4977482;28;20038;-58
2023/04/12 11:15:15;;;;;;;2.80;1.50;;;;;;;12.67;97.27;92687.09;4990416;28;20050;-60
2023/04/12 11:17:52;;;;;;;4.15;2.03;;;;;;;13.38;93.54;92672.94;4988807;28;20054;-60
2023/04/12 11:20:20;;;;;;;4.82;1.80;;;;;;;12.99;94.91;92682.94;4990348;28;20062;-61
2023/04/12 11:22:47;;;;;;;2.80;1.60;;;;;;;12.03;100.00;92685.78;4989760;28;22006;-59
2023/04/12 11:25:16;;;;;;;4.00;1.75;;;;;;;11.74;99.97;92688.91;4989183;28;20146;-58
2023/04/12 11:27:50;;;;;;;4.77;2.10;;;;;;;11.82;100.00;92681.91;4989638;28;20038;-60
2023/04/12 11:30:18;;;;;;;3.53;1.45;;;;;;;11.88;99.38;92687.56;4988691;28;20070;-58
2023/04/12 11:32:46;;;;;;;8.20;4.78;;;;;;;12.38;98.10;92686.31;4988359;28;20049;-58
2023/04/12 11:35:19;;;;;;;4.65;2.30;;;;;;;13.21;94.65;92679.22;4990099;28;20050;-59
2023/04/12 11:37:45;;;;;;;2.85;1.75;;;;;;;13.29;92.07;92681.22;4989770;28;20161;-59
2023/04/12 11:40:13;;;;;;;3.57;1.80;;;;;;;13.74;88.60;92687.03;4990137;28;20106;-58